Time;durP1;ratioP1;P1;durP2;ratioP2;P2;SDS_P1;SDS_P2;PMS_P1;PMS_P2;Temp;Humidity;BMP_temperature;BMP_pressure;BME280_temperature;BME280_humidity;BME280_pressure;Samples;Min_cycle;Max_cycle;Signal;HPM_P1;HPM_P2
2022/11/19 00:01:09;;;;;;;;;;;;;;;3.09;100.00;99292.69;5571522;32;34889;-73
2022/11/19 00:04:23;;;;;;;;;;;;;;;3.03;100.00;99294.09;5571833;32;34921;-73
2022/11/19 00:07:28;;;;;;;;;;;;;;;2.97;100.00;99292.06;5571417;32;34303;-74
2022/11/19 00:10:36;;;;;;;;;;;;;;;2.95;100.00;99294.03;5571497;32;34208;-75
2022/11/19 00:13:44;;;;;;;;;;;;;;;2.97;100.00;99299.91;5578496;31;34336;-75
2022/11/19 00:16:52;;;;;;;;;;;;;;;2.83;100.00;99297.78;5576891;31;35507;-75
2022/11/19 00:20:00;;;;;;;;;;;;;;;2.86;100.00;99313.19;5590974;31;34909;-74
2022/11/19 00:23:10;;;;;;;;;;;;;;;2.82;100.00;99315.28;5591427;31;34385;-75
2022/11/19 00:26:16;;;;;;;;;;;;;;;2.78;100.00;99334.88;5591012;31;34250;-74
2022/11/19 00:29:24;;;;;;;;;;;;;;;2.74;100.00;99332.69;5591126;31;34768;-74
2022/11/19 00:32:30;;;;;;;;;;;;;;;2.67;100.00;99326.38;5590755;31;34332;-74
2022/11/19 00:35:35;;;;;;;;;;;;;;;2.75;100.00;99336.97;5590698;31;34283;-75
2022/11/19 00:38:46;;;;;;;;;;;;;;;2.62;100.00;99332.88;5590783;31;34804;-74
2022/11/19 00:41:53;;;;;;;;;;;;;;;2.65;100.00;99349.28;5591170;31;34850;-75
2022/11/19 00:45:00;;;;;;;;;;;;;;;2.58;100.00;99351.63;5590776;31;34511;-74
2022/11/19 00:48:08;;;;;;;;;;;;;;;2.50;100.00;99357.59;5590713;31;34690;-73
2022/11/19 00:51:16;;;;;;;;;;;;;;;2.38;100.00;99360.47;5590699;31;34223;-74
2022/11/19 00:54:24;;;;;;;;;;;;;;;2.42;100.00;99365.28;5590686;31;34822;-76
2022/11/19 00:57:29;;;;;;;;;;;;;;;2.46;100.00;99356.22;5590750;31;35057;-74
2022/11/19 01:00:36;;;;;;;;;;;;;;;2.31;100.00;99364.66;5590627;31;35064;-74
2022/11/19 01:03:47;;;;;;;;;;;;;;;2.17;100.00;99373.75;5590672;31;34640;-74
2022/11/19 01:06:55;;;;;;;;;;;;;;;2.04;100.00;99373.19;5590623;31;34971;-74
2022/11/19 01:10:05;;;;;;;;;;;;;;;2.10;100.00;99383.94;5590603;31;34246;-73
2022/11/19 01:16:41;;;;;;;;;;;;;;;1.90;100.00;99403.19;5576714;31;35117;-73
2022/11/19 01:19:51;;;;;;;;;;;;;;;1.97;100.00;99417.41;5590337;31;34252;-74
2022/11/19 01:22:56;;;;;;;;;;;;;;;1.84;100.00;99418.62;5590377;31;34567;-73
2022/11/19 01:26:06;;;;;;;;;;;;;;;1.80;100.00;99418.06;5577301;31;34145;-72
2022/11/19 01:29:13;;;;;;;;;;;;;;;1.60;100.00;99421.59;5590003;31;34996;-73
2022/11/19 01:32:20;;;;;;;;;;;;;;;1.58;100.00;99426.16;5590163;31;35069;-73
2022/11/19 01:35:26;;;;;;;;;;;;;;;1.57;100.00;99434.94;5590480;31;34739;-73
2022/11/19 01:38:34;;;;;;;;;;;;;;;1.59;100.00;99446.09;5576498;31;34511;-73
2022/11/19 01:41:40;;;;;;;;;;;;;;;1.56;100.00;99451.56;5590259;31;34214;-73
2022/11/19 01:44:57;;;;;;;;;;;;;;;1.59;100.00;99452.16;5589535;31;34665;-73
2022/11/19 01:48:22;;;;;;;;;;;;;;;1.48;100.00;99441.81;5577011;31;34170;-73
2022/11/19 01:51:41;;;;;;;;;;;;;;;1.45;100.00;99441.25;5590159;31;34205;-73
2022/11/19 01:54:54;;;;;;;;;;;;;;;1.50;100.00;99447.69;5590539;31;34317;-73
2022/11/19 01:58:04;;;;;;;;;;;;;;;1.37;100.00;99456.75;5590203;31;34827;-73
2022/11/19 02:01:12;;;;;;;;;;;;;;;1.23;100.00;99463.16;5576324;31;35137;-73
2022/11/19 02:04:20;;;;;;;;;;;;;;;1.18;100.00;99462.72;5590078;31;34411;-73
2022/11/19 02:07:30;;;;;;;;;;;;;;;1.19;100.00;99472.22;5590211;31;35007;-72
2022/11/19 02:10:47;;;;;;;;;;;;;;;1.20;100.00;99485.16;5563608;31;35690;-73
2022/11/19 02:13:56;;;;;;;;;;;;;;;1.28;100.00;99474.87;5569590;32;35041;-73
2022/11/19 02:17:05;;;;;;;;;;;;;;;1.27;100.00;99490.66;5570564;32;34299;-72
2022/11/19 02:20:30;;;;;;;;;;;;;;;1.40;100.00;99493.06;5570300;32;34340;-73
2022/11/19 02:23:38;;;;;;;;;;;;;;;1.54;100.00;99500.56;5570282;32;34687;-73
2022/11/19 02:26:52;;;;;;;;;;;;;;;1.53;100.00;99509.34;5570599;32;34870;-73
2022/11/19 02:30:04;;;;;;;;;;;;;;;1.52;100.00;99505.91;5568914;32;34285;-73
2022/11/19 02:33:10;;;;;;;;;;;;;;;1.50;100.00;99520.87;5570186;32;34333;-73
2022/11/19 02:36:28;;;;;;;;;;;;;;;1.36;100.00;99523.84;5569971;32;34576;-73
2022/11/19 02:39:32;;;;;;;;;;;;;;;1.31;100.00;99524.25;5570165;32;34274;-73
2022/11/19 02:42:48;;;;;;;;;;;;;;;1.40;100.00;99529.66;5570117;32;34962;-72
2022/11/19 02:46:02;;;;;;;;;;;;;;;1.42;100.00;99540.78;5570461;32;34370;-73
2022/11/19 02:49:11;;;;;;;;;;;;;;;1.48;100.00;99556.78;5569541;32;34249;-72
2022/11/19 02:52:18;;;;;;;;;;;;;;;1.49;100.00;99571.53;5569972;32;34909;-73
2022/11/19 02:55:27;;;;;;;;;;;;;;;1.60;100.00;99579.25;5569942;32;34826;-72
2022/11/19 03:05:30;;;;;;;;;;;;;;;1.69;100.00;99577.69;5569255;32;34934;-74
2022/11/19 03:08:37;;;;;;;;;;;;;;;1.79;100.00;99580.34;5569618;32;34870;-73
2022/11/19 03:11:53;;;;;;;;;;;;;;;1.82;100.00;99587.91;5569683;32;34863;-73
2022/11/19 03:18:28;;;;;;;;;;;;;;;1.80;100.00;99610.72;5589127;31;34266;-73
2022/11/19 03:21:37;;;;;;;;;;;;;;;1.87;100.00;99602.25;5575748;31;34871;-73
2022/11/19 03:24:50;;;;;;;;;;;;;;;1.96;100.00;99617.16;5588927;31;34900;-73
2022/11/19 03:28:00;;;;;;;;;;;;;;;1.92;100.00;99622.78;5588907;31;35034;-73
2022/11/19 03:31:07;;;;;;;;;;;;;;;1.89;100.00;99639.53;5588925;31;34848;-73
2022/11/19 03:34:17;;;;;;;;;;;;;;;1.94;100.00;99639.16;5588761;31;34897;-72
2022/11/19 03:37:26;;;;;;;;;;;;;;;2.00;100.00;99644.69;5588964;31;34708;-73
2022/11/19 03:40:36;;;;;;;;;;;;;;;1.90;100.00;99633.34;5588635;31;34422;-73
2022/11/19 03:43:52;;;;;;;;;;;;;;;1.75;100.00;99629.44;5588630;31;34851;-73
2022/11/19 03:47:06;;;;;;;;;;;;;;;1.63;100.00;99620.84;5588488;31;35025;-73
2022/11/19 03:50:17;;;;;;;;;;;;;;;1.52;100.00;99610.47;5588616;31;34357;-73
2022/11/19 03:53:27;;;;;;;;;;;;;;;1.40;100.00;99619.34;5588474;31;34370;-72
2022/11/19 03:56:37;;;;;;;;;;;;;;;1.31;100.00;99631.38;5588739;31;34575;-71
2022/11/19 03:59:44;;;;;;;;;;;;;;;1.26;100.00;99628.31;5574212;31;34685;-71
2022/11/19 04:02:50;;;;;;;;;;;;;;;1.17;100.00;99630.84;5588312;31;34268;-72
2022/11/19 04:05:57;;;;;;;;;;;;;;;1.13;100.00;99652.97;5588249;31;34604;-72
2022/11/19 04:09:03;;;;;;;;;;;;;;;1.16;100.00;99656.16;5589334;31;34850;-72
2022/11/19 04:12:20;;;;;;;;;;;;;;;1.09;100.00;99662.84;5590936;31;34563;-72
2022/11/19 04:15:26;;;;;;;;;;;;;;;1.06;100.00;99663.09;5577040;31;34328;-71
2022/11/19 04:18:32;;;;;;;;;;;;;;;0.96;100.00;99656.13;5591153;31;34702;-72
2022/11/19 04:21:39;;;;;;;;;;;;;;;0.88;100.00;99669.78;5591074;31;34315;-72
2022/11/19 04:24:47;;;;;;;;;;;;;;;0.79;100.00;99692.25;5591019;31;34725;-73
2022/11/19 04:27:55;;;;;;;;;;;;;;;0.78;100.00;99701.03;5576698;31;34946;-72
2022/11/19 04:31:04;;;;;;;;;;;;;;;0.76;100.00;99709.94;5577670;31;34797;-72
2022/11/19 04:34:15;;;;;;;;;;;;;;;0.78;100.00;99721.91;5590789;31;34885;-72
2022/11/19 04:37:24;;;;;;;;;;;;;;;0.82;100.00;99714.69;5590928;31;34617;-72
2022/11/19 04:40:31;;;;;;;;;;;;;;;0.87;100.00;99731.63;5576796;31;34290;-72
2022/11/19 04:43:39;;;;;;;;;;;;;;;0.97;100.00;99726.50;5590691;31;35032;-72
2022/11/19 04:46:48;;;;;;;;;;;;;;;0.99;100.00;99734.22;5591085;31;34728;-72
2022/11/19 04:49:56;;;;;;;;;;;;;;;0.97;100.00;99729.09;5590750;31;34192;-72
2022/11/19 04:53:01;;;;;;;;;;;;;;;1.05;100.00;99752.03;5590596;31;34325;-72
2022/11/19 04:56:09;;;;;;;;;;;;;;;1.10;100.00;99776.00;5590486;31;34211;-71
2022/11/19 04:59:18;;;;;;;;;;;;;;;1.04;100.00;99772.09;5590676;31;34391;-72
2022/11/19 05:02:28;;;;;;;;;;;;;;;1.05;100.00;99775.53;5576417;31;35039;-72
2022/11/19 05:05:35;;;;;;;;;;;;;;;1.07;100.00;99789.28;5590696;31;34948;-72
2022/11/19 05:08:42;;;;;;;;;;;;;;;1.04;100.00;99785.13;5590647;31;34817;-72
2022/11/19 05:11:49;;;;;;;;;;;;;;;1.01;100.00;99784.56;5590580;31;34213;-72
2022/11/19 05:15:00;;;;;;;;;;;;;;;1.06;100.00;99793.69;5590253;31;35130;-72
2022/11/19 05:18:08;;;;;;;;;;;;;;;1.08;100.00;99797.00;5590431;31;34274;-72
2022/11/19 05:21:16;;;;;;;;;;;;;;;1.14;100.00;99804.34;5590307;31;34587;-72
2022/11/19 05:24:26;;;;;;;;;;;;;;;1.35;100.00;99812.28;5590454;31;34909;-72
2022/11/19 05:27:32;;;;;;;;;;;;;;;1.50;100.00;99818.06;5590521;31;34268;-72
2022/11/19 05:30:41;;;;;;;;;;;;;;;1.46;100.00;99817.44;5576349;31;35624;-72
2022/11/19 05:33:49;;;;;;;;;;;;;;;1.44;100.00;99814.16;5590313;31;34236;-72
2022/11/19 05:36:57;;;;;;;;;;;;;;;1.43;100.00;99820.31;5590485;31;34320;-72
2022/11/19 05:40:06;;;;;;;;;;;;;;;1.35;100.00;99821.91;5576475;31;32951;-71
2022/11/19 05:43:15;;;;;;;;;;;;;;;1.41;100.00;99829.22;5563608;31;34505;-72
2022/11/19 05:46:25;;;;;;;;;;;;;;;1.23;100.00;99827.13;5590225;31;34420;-72
2022/11/19 05:49:32;;;;;;;;;;;;;;;1.11;100.00;99846.41;5577108;31;34302;-72
2022/11/19 05:52:39;;;;;;;;;;;;;;;1.12;100.00;99845.44;5590194;31;34359;-73
2022/11/19 05:55:43;;;;;;;;;;;;;;;1.08;100.00;99851.03;5590220;31;34669;-72
2022/11/19 05:58:50;;;;;;;;;;;;;;;1.19;100.00;99851.84;5590169;31;34253;-73
2022/11/19 06:01:58;;;;;;;;;;;;;;;1.05;100.00;99857.34;5590279;31;34939;-73
2022/11/19 06:05:07;;;;;;;;;;;;;;;1.14;100.00;99861.84;5576204;31;34362;-71
2022/11/19 06:08:14;;;;;;;;;;;;;;;0.99;100.00;99870.03;5590151;31;34246;-71
2022/11/19 06:14:49;;;;;;;;;;;;;;;0.87;100.00;99879.66;5589823;31;34212;-72
2022/11/19 06:17:56;;;;;;;;;;;;;;;0.86;100.00;99885.81;5589857;31;34367;-72
2022/11/19 06:21:01;;;;;;;;;;;;;;;1.10;100.00;99904.00;5589867;31;34833;-72
2022/11/19 06:24:16;;;;;;;;;;;;;;;1.19;100.00;99911.09;5589876;31;34240;-72
2022/11/19 06:27:22;;;;;;;;;;;;;;;1.29;100.00;99912.06;5589878;31;34327;-72
2022/11/19 06:30:30;;;;;;;;;;;;;;;1.38;100.00;99919.16;5589466;31;34335;-72
2022/11/19 06:33:37;;;;;;;;;;;;;;;1.38;100.00;99913.09;5575341;31;34639;-72
2022/11/19 06:36:45;;;;;;;;;;;;;;;1.39;100.00;99914.78;5589729;31;34504;-72
2022/11/19 06:39:56;;;;;;;;;;;;;;;1.37;100.00;99922.72;5589736;31;34879;-72
2022/11/19 06:43:04;;;;;;;;;;;;;;;1.38;100.00;99937.47;5576591;31;34806;-72
2022/11/19 06:46:11;;;;;;;;;;;;;;;1.31;100.00;99928.41;5589718;31;34256;-72
2022/11/19 06:49:18;;;;;;;;;;;;;;;1.27;100.00;99927.84;5589161;31;34531;-72
2022/11/19 06:52:27;;;;;;;;;;;;;;;1.41;100.00;99931.16;5589382;31;34577;-72
2022/11/19 06:55:34;;;;;;;;;;;;;;;1.31;100.00;99939.72;5576254;31;34374;-71
2022/11/19 06:58:40;;;;;;;;;;;;;;;1.39;100.00;99940.91;5589400;31;34927;-72
2022/11/19 07:01:47;;;;;;;;;;;;;;;1.41;100.00;99950.28;5589351;31;34725;-73
2022/11/19 07:04:57;;;;;;;;;;;;;;;1.44;100.00;99944.81;5589160;31;34845;-72
2022/11/19 07:08:07;;;;;;;;;;;;;;;1.42;100.00;99944.09;5589276;31;34384;-71
2022/11/19 07:11:24;;;;;;;;;;;;;;;1.37;100.00;99946.25;5589212;31;34367;-71
2022/11/19 07:14:31;;;;;;;;;;;;;;;1.24;100.00;99953.38;5589032;31;34570;-71
2022/11/19 07:17:39;;;;;;;;;;;;;;;1.02;100.00;99955.97;5589147;31;34824;-72
2022/11/19 07:20:46;;;;;;;;;;;;;;;0.98;100.00;99962.37;5588994;31;34341;-71
2022/11/19 07:23:54;;;;;;;;;;;;;;;1.04;100.00;99954.09;5589038;31;34464;-71
2022/11/19 07:27:01;;;;;;;;;;;;;;;1.09;100.00;99957.19;5588929;31;34852;-72
2022/11/19 07:30:07;;;;;;;;;;;;;;;1.08;100.00;99968.56;5588823;31;34260;-72
2022/11/19 07:33:16;;;;;;;;;;;;;;;1.25;100.00;99963.72;5574345;31;35547;-71
2022/11/19 07:36:25;;;;;;;;;;;;;;;1.28;100.00;99976.53;5588724;31;34243;-72
2022/11/19 07:39:32;;;;;;;;;;;;;;;1.68;100.00;99979.50;5575346;31;34380;-71
2022/11/19 07:42:49;;;;;;;;;;;;;;;1.94;100.00;99992.25;5588557;31;34714;-72
2022/11/19 07:45:58;;;;;;;;;;;;;;;2.07;100.00;99978.09;5577363;31;35090;-72
2022/11/19 07:49:07;;;;;;;;;;;;;;;2.09;100.00;99962.25;5578164;31;34197;-72
2022/11/19 07:52:16;;;;;;;;;;;;;;;2.07;100.00;99964.19;5591238;31;34467;-71
2022/11/19 07:55:23;;;;;;;;;;;;;;;2.04;100.00;99972.25;5577275;31;34242;-72
2022/11/19 07:58:31;;;;;;;;;;;;;;;2.10;100.00;99971.78;5590911;31;34304;-72
2022/11/19 08:01:37;;;;;;;;;;;;;;;2.15;100.00;99973.06;5590660;31;34803;-72
2022/11/19 08:04:46;;;;;;;;;;;;;;;2.33;100.00;99986.44;5590904;31;34510;-72
2022/11/19 08:07:53;;;;;;;;;;;;;;;2.06;100.00;99972.97;5591056;31;34321;-71
2022/11/19 08:10:58;;;;;;;;;;;;;;;1.86;100.00;99976.38;5591081;31;34218;-72
2022/11/19 08:14:06;;;;;;;;;;;;;;;1.86;100.00;99979.81;5590705;31;34906;-72
2022/11/19 08:20:36;;;;;;;;;;;;;;;2.09;100.00;99998.88;5590968;31;34292;-71
2022/11/19 08:23:44;;;;;;;;;;;;;;;2.11;100.00;100018.75;5590775;31;34405;-72
2022/11/19 08:26:49;;;;;;;;;;;;;;;2.05;100.00;100019.25;5591118;31;34292;-72
2022/11/19 08:29:56;;;;;;;;;;;;;;;1.89;100.00;100017.97;5590778;31;35265;-72
2022/11/19 08:33:01;;;;;;;;;;;;;;;1.90;100.00;100017.00;5590829;31;34280;-72
2022/11/19 08:36:05;;;;;;;;;;;;;;;2.10;100.00;100019.72;5590777;31;34962;-72
2022/11/19 08:39:10;;;;;;;;;;;;;;;2.39;100.00;100027.81;5590524;31;34940;-72
2022/11/19 08:45:39;;;;;;;;;;;;;;;2.38;100.00;100041.03;5590798;31;34320;-72
2022/11/19 08:48:46;;;;;;;;;;;;;;;2.56;100.00;100050.87;5564330;31;35494;-72
2022/11/19 08:51:54;;;;;;;;;;;;;;;2.63;100.00;100043.31;5576250;31;35048;-72
2022/11/19 08:54:58;;;;;;;;;;;;;;;2.68;100.00;100038.53;5589841;31;35319;-72
2022/11/19 08:58:03;;;;;;;;;;;;;;;2.80;100.00;100040.16;5590445;31;34885;-72
2022/11/19 09:01:15;;;;;;;;;;;;;;;2.85;100.00;100037.16;5590557;31;34943;-72
2022/11/19 09:04:21;;;;;;;;;;;;;;;2.75;100.00;100029.25;5590497;31;34298;-72
2022/11/19 09:07:27;;;;;;;;;;;;;;;2.52;100.00;100031.09;5590320;31;34287;-72
2022/11/19 09:10:32;;;;;;;;;;;;;;;2.48;100.00;100050.66;5576287;31;34798;-72
2022/11/19 09:13:42;;;;;;;;;;;;;;;2.58;100.00;100075.13;5575191;31;34373;-73
2022/11/19 09:16:49;;;;;;;;;;;;;;;3.00;100.00;100086.50;5576439;31;32955;-72
2022/11/19 09:19:56;;;;;;;;;;;;;;;3.27;100.00;100104.34;5590507;31;34391;-72
2022/11/19 09:23:01;;;;;;;;;;;;;;;3.58;100.00;100109.66;5590442;31;34986;-72
2022/11/19 09:26:11;;;;;;;;;;;;;;;3.81;100.00;100121.63;5576292;31;34293;-72
2022/11/19 09:29:15;;;;;;;;;;;;;;;3.91;100.00;100115.47;5576333;31;34273;-72
2022/11/19 09:32:24;;;;;;;;;;;;;;;4.18;100.00;100112.25;5590488;31;34320;-72
2022/11/19 09:35:31;;;;;;;;;;;;;;;4.58;96.17;100103.50;5590318;31;34787;-72
2022/11/19 09:38:39;;;;;;;;;;;;;;;5.16;95.50;100091.19;5589971;31;34607;-72
2022/11/19 09:41:51;;;;;;;;;;;;;;;5.68;92.41;100089.81;5590078;31;34204;-72
2022/11/19 09:45:03;;;;;;;;;;;;;;;5.17;93.23;100087.59;5590105;31;34764;-72
2022/11/19 09:48:11;;;;;;;;;;;;;;;5.53;88.53;100102.59;5590079;31;34197;-72
2022/11/19 09:51:22;;;;;;;;;;;;;;;5.55;87.71;100103.31;5576868;31;34880;-72
2022/11/19 09:54:29;;;;;;;;;;;;;;;5.57;86.81;100105.78;5590190;31;34309;-72
2022/11/19 09:57:44;;;;;;;;;;;;;;;5.69;83.63;100107.28;5590056;31;34939;-72
2022/11/19 10:00:50;;;;;;;;;;;;;;;5.69;84.50;100113.38;5563232;31;34890;-72
2022/11/19 10:03:55;;;;;;;;;;;;;;;5.43;85.60;100122.00;5590391;31;34739;-73
2022/11/19 10:07:10;;;;;;;;;;;;;;;5.26;86.94;100118.31;5589048;31;34789;-72
2022/11/19 10:10:22;;;;;;;;;;;;;;;4.90;93.43;100117.22;5589964;31;34199;-72
2022/11/19 10:13:30;;;;;;;;;;;;;;;5.26;90.60;100120.94;5589726;31;34911;-72
2022/11/19 10:16:44;;;;;;;;;;;;;;;4.90;93.48;100109.31;5590021;31;34777;-72
2022/11/19 10:19:53;;;;;;;;;;;;;;;4.94;92.09;100113.34;5576618;31;34176;-72
2022/11/19 10:23:01;;;;;;;;;;;;;;;4.99;91.38;100103.22;5589842;31;34813;-72
2022/11/19 10:26:13;;;;;;;;;;;;;;;4.63;92.22;100114.44;5589857;31;34584;-72
2022/11/19 10:29:21;;;;;;;;;;;;;;;4.83;87.56;100116.13;5589433;31;35070;-72
2022/11/19 10:32:37;;;;;;;;;;;;;;;4.74;86.12;100111.69;5562971;31;35582;-73
2022/11/19 10:35:49;;;;;;;;;;;;;;;4.55;86.55;100101.97;5575758;31;34445;-72
2022/11/19 10:38:57;;;;;;;;;;;;;;;4.31;87.30;100101.50;5589522;31;34228;-71
2022/11/19 10:42:11;;;;;;;;;;;;;;;4.19;87.57;100095.53;5589409;31;34166;-71
2022/11/19 10:45:25;;;;;;;;;;;;;;;4.21;84.96;100092.78;5575502;31;35470;-72
2022/11/19 10:48:41;;;;;;;;;;;;;;;4.28;86.51;100099.97;5589141;31;34885;-72
2022/11/19 10:51:48;;;;;;;;;;;;;;;4.58;82.50;100095.63;5575934;31;34669;-72
2022/11/19 10:54:58;;;;;;;;;;;;;;;4.90;79.92;100113.75;5589080;31;34867;-72
2022/11/19 10:58:12;;;;;;;;;;;;;;;5.38;76.38;100106.66;5589533;31;34694;-71
2022/11/19 11:01:24;;;;;;;;;;;;;;;5.54;77.46;100106.91;5589264;31;34539;-71
2022/11/19 11:04:29;;;;;;;;;;;;;;;6.01;77.82;100115.63;5589108;31;34792;-72
2022/11/19 11:07:55;;;;;;;;;;;;;;;6.08;78.51;100129.91;5589167;31;34833;-72
2022/11/19 11:11:02;;;;;;;;;;;;;;;6.10;76.76;100132.37;5589142;31;34843;-71
2022/11/19 11:17:35;;;;;;;;;;;;;;;5.49;79.73;100151.22;5589724;31;34605;-72
2022/11/19 11:20:47;;;;;;;;;;;;;;;5.71;80.17;100157.16;5577390;31;34248;-73
2022/11/19 11:23:55;;;;;;;;;;;;;;;5.97;79.08;100145.03;5591525;31;34660;-72
2022/11/19 11:27:18;;;;;;;;;;;;;;;5.32;82.18;100154.59;5591554;31;34872;-72
2022/11/19 11:30:24;;;;;;;;;;;;;;;4.91;84.85;100145.16;5577877;31;34331;-72
2022/11/19 11:33:34;;;;;;;;;;;;;;;4.84;84.35;100159.84;5591656;31;34538;-72
2022/11/19 11:36:40;;;;;;;;;;;;;;;4.78;83.43;100157.75;5576849;31;34724;-71
2022/11/19 11:39:48;;;;;;;;;;;;;;;5.32;81.50;100159.00;5590871;31;34311;-71
2022/11/19 11:42:54;;;;;;;;;;;;;;;5.23;80.34;100148.34;5591424;31;34247;-72
2022/11/19 11:46:06;;;;;;;;;;;;;;;5.23;81.23;100140.44;5591335;31;34133;-71
2022/11/19 11:49:26;;;;;;;;;;;;;;;5.36;79.13;100132.28;5590916;31;35075;-71
2022/11/19 11:52:36;;;;;;;;;;;;;;;5.53;77.32;100142.06;5591191;31;34913;-72
2022/11/19 11:55:44;;;;;;;;;;;;;;;5.32;79.50;100120.38;5576998;31;34705;-71
2022/11/19 11:58:53;;;;;;;;;;;;;;;5.73;77.97;100120.97;5590534;31;34859;-72
2022/11/19 12:02:02;;;;;;;;;;;;;;;5.67;79.63;100125.84;5577039;31;34797;-72
2022/11/19 12:05:14;;;;;;;;;;;;;;;5.74;76.61;100128.75;5591056;31;35700;-71
2022/11/19 12:08:25;;;;;;;;;;;;;;;5.49;77.25;100137.25;5590922;31;34746;-71
2022/11/19 12:11:55;;;;;;;;;;;;;;;5.35;78.85;100129.78;5577219;31;34744;-71
2022/11/19 12:15:09;;;;;;;;;;;;;;;5.29;77.53;100132.97;5591246;31;35065;-72
2022/11/19 12:18:15;;;;;;;;;;;;;;;4.99;81.14;100134.78;5591126;31;34328;-72
2022/11/19 12:21:26;;;;;;;;;;;;;;;4.87;82.04;100143.78;5591028;31;34786;-72
2022/11/19 12:24:37;;;;;;;;;;;;;;;4.70;83.31;100133.91;5591076;31;34661;-71
2022/11/19 12:27:46;;;;;;;;;;;;;;;4.37;85.36;100127.22;5590875;31;34249;-70
2022/11/19 12:31:05;;;;;;;;;;;;;;;4.29;88.33;100127.06;5590079;31;34440;-71
2022/11/19 12:34:11;;;;;;;;;;;;;;;4.57;87.75;100126.31;5591173;31;33803;-71
2022/11/19 12:37:36;;;;;;;;;;;;;;;4.94;87.12;100136.19;5590693;31;34825;-71
2022/11/19 12:40:57;;;;;;;;;;;;;;;4.81;86.54;100128.56;5576006;31;35112;-71
2022/11/19 12:44:12;;;;;;;;;;;;;;;4.86;86.07;100125.50;5590537;31;35032;-71
2022/11/19 12:47:30;;;;;;;;;;;;;;;5.22;84.57;100112.50;5590545;31;34929;-72
2022/11/19 12:50:37;;;;;;;;;;;;;;;5.51;82.96;100111.63;5590738;31;34136;-70
2022/11/19 12:54:04;;;;;;;;;;;;;;;5.58;81.51;100110.91;5563847;31;32768;-73
2022/11/19 12:57:13;;;;;;;;;;;;;;;5.17;83.42;100114.72;5590042;31;34823;-71
2022/11/19 13:00:18;;;;;;;;;;;;;;;5.22;83.82;100128.28;5576242;31;33278;-72
2022/11/19 13:03:32;;;;;;;;;;;;;;;4.94;85.56;100123.84;5590527;31;34886;-71
2022/11/19 13:06:42;;;;;;;;;;;;;;;5.44;82.57;100129.78;5590597;31;33192;-71
2022/11/19 13:10:11;;;;;;;;;;;;;;;5.52;83.85;100129.88;5576257;31;35625;-71
2022/11/19 13:13:18;;;;;;;;;;;;;;;5.25;84.98;100122.75;5576730;31;35010;-72
2022/11/19 13:16:24;;;;;;;;;;;;;;;5.27;85.75;100121.78;5576784;31;34186;-70
2022/11/19 13:19:32;;;;;;;;;;;;;;;5.34;84.51;100120.22;5576639;31;35115;-71
2022/11/19 13:22:43;;;;;;;;;;;;;;;5.35;84.88;100127.16;5590368;31;34889;-70
2022/11/19 13:26:00;;;;;;;;;;;;;;;5.32;87.25;100132.72;5590283;31;34180;-71
2022/11/19 13:29:08;;;;;;;;;;;;;;;5.39;85.36;100128.53;5590290;31;35020;-71
2022/11/19 13:32:20;;;;;;;;;;;;;;;5.37;84.71;100141.00;5590451;31;34794;-70
2022/11/19 13:35:28;;;;;;;;;;;;;;;5.27;84.88;100148.06;5563442;31;34728;-71
2022/11/19 13:38:43;;;;;;;;;;;;;;;5.11;86.73;100153.88;5563214;31;34727;-71
2022/11/19 13:45:17;;;;;;;;;;;;;;;5.08;89.34;100152.34;5590279;31;34126;-70
2022/11/19 13:48:29;;;;;;;;;;;;;;;5.02;90.63;100157.34;5590184;31;34173;-71
2022/11/19 13:51:37;;;;;;;;;;;;;;;5.03;89.50;100157.22;5590086;31;34190;-70
2022/11/19 13:54:49;;;;;;;;;;;;;;;4.96;90.29;100163.97;5590123;31;34641;-70
2022/11/19 13:57:56;;;;;;;;;;;;;;;4.98;90.59;100179.63;5589907;31;34327;-71
2022/11/19 14:01:08;;;;;;;;;;;;;;;5.12;90.26;100166.06;5563765;31;35179;-71
2022/11/19 14:04:35;;;;;;;;;;;;;;;5.04;91.04;100177.25;5590209;31;34706;-70
2022/11/19 14:08:00;;;;;;;;;;;;;;;5.04;90.83;100172.00;5590113;31;34350;-71
2022/11/19 14:11:16;;;;;;;;;;;;;;;4.88;91.13;100173.53;5575691;31;33128;-71
2022/11/19 14:28:50;;;;;;;;;;;;;;;4.48;96.94;100149.94;5553788;32;35582;-71
2022/11/19 14:32:01;;;;;;;;;;;;;;;4.42;96.60;100147.81;5570182;32;34304;-70
2022/11/19 14:35:15;;;;;;;;;;;;;;;4.16;99.09;100137.81;5570069;32;34239;-70
2022/11/19 14:38:33;;;;;;;;;;;;;;;4.09;100.00;100133.22;5570040;32;34318;-70
2022/11/19 14:41:43;;;;;;;;;;;;;;;4.10;100.00;100137.50;5569319;32;34217;-70
2022/11/19 14:45:02;;;;;;;;;;;;;;;3.99;100.00;100153.34;5569858;32;34969;-72
2022/11/19 14:48:09;;;;;;;;;;;;;;;3.96;100.00;100141.31;5569935;32;34516;-70
2022/11/19 14:51:16;;;;;;;;;;;;;;;3.80;100.00;100147.03;5569729;32;34629;-71
2022/11/19 14:54:26;;;;;;;;;;;;;;;3.75;100.00;100159.72;5569213;32;34874;-70
2022/11/19 14:57:37;;;;;;;;;;;;;;;3.72;100.00;100170.47;5569795;32;34303;-71
2022/11/19 15:00:44;;;;;;;;;;;;;;;3.70;100.00;100172.41;5555931;32;34929;-71
2022/11/19 15:03:57;;;;;;;;;;;;;;;3.78;100.00;100174.34;5568655;32;34218;-71
2022/11/19 15:07:09;;;;;;;;;;;;;;;3.65;100.00;100179.81;5569028;32;34186;-71
2022/11/19 15:10:18;;;;;;;;;;;;;;;3.71;100.00;100186.34;5567824;32;34813;-71
2022/11/19 15:13:27;;;;;;;;;;;;;;;3.64;100.00;100196.50;5573960;31;34336;-70
2022/11/19 15:16:34;;;;;;;;;;;;;;;3.54;100.00;100192.16;5589126;31;34732;-70
2022/11/19 15:19:43;;;;;;;;;;;;;;;3.49;100.00;100187.28;5589035;31;34453;-71
2022/11/19 15:23:00;;;;;;;;;;;;;;;3.40;100.00;100188.88;5588629;31;34391;-71
2022/11/19 15:26:07;;;;;;;;;;;;;;;3.40;100.00;100196.75;5588749;31;34165;-71
2022/11/19 15:29:24;;;;;;;;;;;;;;;3.48;100.00;100190.91;5575452;31;34934;-71
2022/11/19 15:32:49;;;;;;;;;;;;;;;3.37;100.00;100193.56;5588596;31;34499;-71
2022/11/19 15:36:14;;;;;;;;;;;;;;;3.15;100.00;100204.97;5574510;31;33569;-71
2022/11/19 15:39:37;;;;;;;;;;;;;;;3.20;100.00;100201.97;5588559;31;34263;-71
2022/11/19 15:42:46;;;;;;;;;;;;;;;3.09;100.00;100196.78;5562124;31;34179;-71
2022/11/19 15:45:55;;;;;;;;;;;;;;;2.99;100.00;100196.69;5574742;31;34906;-71
2022/11/19 15:49:02;;;;;;;;;;;;;;;2.77;100.00;100196.72;5588644;31;34310;-71
2022/11/19 15:52:13;;;;;;;;;;;;;;;2.78;100.00;100196.63;5588321;31;34402;-71
2022/11/19 15:55:25;;;;;;;;;;;;;;;2.84;100.00;100200.53;5588459;31;34838;-71
2022/11/19 15:58:34;;;;;;;;;;;;;;;2.90;100.00;100197.44;5588407;31;34263;-71
2022/11/19 16:01:43;;;;;;;;;;;;;;;2.83;100.00;100194.47;5588414;31;34828;-71
2022/11/19 16:04:49;;;;;;;;;;;;;;;2.73;100.00;100206.63;5589292;31;34837;-71
2022/11/19 16:07:59;;;;;;;;;;;;;;;2.81;100.00;100200.81;5590845;31;34350;-71
2022/11/19 16:17:59;;;;;;;;;;;;;;;2.58;100.00;100198.22;5577193;31;35072;-71
2022/11/19 16:21:24;;;;;;;;;;;;;;;2.61;100.00;100194.53;5590813;31;34366;-71
2022/11/19 16:27:58;;;;;;;;;;;;;;;2.62;100.00;100204.84;5590761;31;34923;-71
2022/11/19 16:31:06;;;;;;;;;;;;;;;2.51;100.00;100215.38;5591169;31;34567;-71
2022/11/19 16:34:23;;;;;;;;;;;;;;;2.59;100.00;100225.22;5590834;31;34181;-71
2022/11/19 16:37:31;;;;;;;;;;;;;;;2.47;100.00;100229.63;5576830;31;35366;-71
2022/11/19 16:44:12;;;;;;;;;;;;;;;2.56;100.00;100236.78;5590702;31;34466;-71
2022/11/19 16:47:29;;;;;;;;;;;;;;;2.65;100.00;100239.63;5590703;31;34303;-70
2022/11/19 16:50:36;;;;;;;;;;;;;;;2.59;100.00;100249.63;5590726;31;35038;-69
2022/11/19 16:53:48;;;;;;;;;;;;;;;2.58;100.00;100244.50;5590481;31;34440;-69
2022/11/19 16:56:56;;;;;;;;;;;;;;;2.53;100.00;100257.13;5590450;31;34530;-70
2022/11/19 17:00:12;;;;;;;;;;;;;;;2.57;100.00;100255.94;5590426;31;34842;-70
2022/11/19 17:03:22;;;;;;;;;;;;;;;2.45;100.00;100262.12;5590448;31;34305;-70
2022/11/19 17:06:30;;;;;;;;;;;;;;;2.51;100.00;100267.75;5577042;31;34653;-70
2022/11/19 17:09:46;;;;;;;;;;;;;;;2.46;100.00;100255.94;5590878;31;34851;-70
2022/11/19 17:12:54;;;;;;;;;;;;;;;2.35;100.00;100254.16;5590121;31;34824;-70
2022/11/19 17:16:16;;;;;;;;;;;;;;;2.31;100.00;100265.81;5589972;31;34860;-70
2022/11/19 17:19:30;;;;;;;;;;;;;;;2.29;100.00;100265.09;5590304;31;34837;-70
2022/11/19 17:22:35;;;;;;;;;;;;;;;2.27;100.00;100261.78;5590338;31;34282;-70
2022/11/19 17:25:56;;;;;;;;;;;;;;;2.15;100.00;100262.69;5576068;31;34622;-70